Time;durP1;ratioP1;P1;durP2;ratioP2;P2;SDS_P1;SDS_P2;PMS_P1;PMS_P2;Temp;Humidity;BMP_temperature;BMP_pressure;BME280_temperature;BME280_humidity;BME280_pressure;Samples;Min_cycle;Max_cycle;Signal;HPM_P1;HPM_P2
2020/12/30 00:02:07;;;;;;;10.27;7.47;;;3.60;94.30;;;;;;5086411;28;20094;-52
2020/12/30 00:04:32;;;;;;;9.52;7.72;;;3.60;94.30;;;;;;5083988;28;20566;-52
2020/12/30 00:06:58;;;;;;;8.25;6.63;;;3.60;94.40;;;;;;5080538;28;20139;-53
2020/12/30 00:09:24;;;;;;;8.48;7.38;;;3.60;94.40;;;;;;5081657;28;20395;-53
2020/12/30 00:11:50;;;;;;;7.88;6.80;;;3.60;94.50;;;;;;5082997;28;20513;-53
2020/12/30 00:14:15;;;;;;;9.05;7.50;;;3.60;94.50;;;;;;5081645;28;20036;-53
2020/12/30 00:16:41;;;;;;;8.77;7.32;;;3.50;94.50;;;;;;5078903;28;20060;-52
2020/12/30 00:19:07;;;;;;;8.18;7.13;;;3.50;94.50;;;;;;5085004;28;20032;-54
2020/12/30 00:21:32;;;;;;;10.07;7.00;;;3.50;94.50;;;;;;5082503;28;20058;-52
2020/12/30 00:23:58;;;;;;;10.30;7.75;;;3.50;94.50;;;;;;5079794;28;20054;-53
2020/12/30 00:26:24;;;;;;;9.38;7.85;;;3.50;94.60;;;;;;5082309;28;20367;-52
2020/12/30 00:28:50;;;;;;;10.95;8.10;;;3.50;94.60;;;;;;5081619;28;20444;-53
2020/12/30 00:31:15;;;;;;;11.25;8.23;;;3.50;94.70;;;;;;5080605;28;20083;-52
2020/12/30 00:33:41;;;;;;;11.18;7.80;;;3.50;94.70;;;;;;5078684;28;20201;-53
2020/12/30 00:36:10;;;;;;;11.10;8.80;;;3.60;94.80;;;;;;5079209;28;20040;-54
2020/12/30 00:38:35;;;;;;;12.15;9.07;;;3.60;94.80;;;;;;5079355;28;20541;-53
2020/12/30 00:41:02;;;;;;;11.18;9.20;;;3.60;94.80;;;;;;5082832;28;20040;-53
2020/12/30 00:43:28;;;;;;;11.48;9.32;;;3.60;94.70;;;;;;5078741;28;20508;-53
2020/12/30 00:45:54;;;;;;;12.25;9.43;;;3.60;94.70;;;;;;5082113;28;20096;-53
2020/12/30 00:48:19;;;;;;;11.82;9.93;;;3.60;94.70;;;;;;5078888;28;20542;-53
2020/12/30 00:50:45;;;;;;;12.95;10.07;;;3.60;94.70;;;;;;5082792;28;20470;-54
2020/12/30 00:53:11;;;;;;;12.45;10.60;;;3.60;94.70;;;;;;5079612;28;20108;-52
2020/12/30 00:55:37;;;;;;;13.63;11.60;;;3.60;94.70;;;;;;5083304;28;20036;-53
2020/12/30 00:58:03;;;;;;;15.23;11.45;;;3.60;94.70;;;;;;5083768;28;20036;-54
2020/12/30 01:00:28;;;;;;;13.57;9.80;;;3.60;94.70;;;;;;5083734;28;20036;-52
2020/12/30 01:02:54;;;;;;;13.13;11.60;;;3.60;94.80;;;;;;5081500;28;20048;-54
2020/12/30 01:05:20;;;;;;;13.85;11.40;;;3.60;94.80;;;;;;5082920;28;20494;-53
2020/12/30 01:07:46;;;;;;;13.65;11.15;;;3.60;94.80;;;;;;5079517;28;20036;-53
2020/12/30 01:10:11;;;;;;;12.95;11.55;;;3.60;94.80;;;;;;5080568;28;20075;-52
2020/12/30 01:12:37;;;;;;;13.80;11.10;;;3.60;94.80;;;;;;5082500;28;20517;-53
2020/12/30 01:15:04;;;;;;;14.80;11.35;;;3.60;94.80;;;;;;5084573;28;20127;-54
2020/12/30 01:17:30;;;;;;;14.75;12.57;;;3.60;94.80;;;;;;5076385;28;20024;-54
2020/12/30 01:19:55;;;;;;;15.07;12.38;;;3.60;94.80;;;;;;5081048;28;20028;-54
2020/12/30 01:22:21;;;;;;;16.10;12.45;;;3.60;94.80;;;;;;5080654;28;20467;-53
2020/12/30 01:24:46;;;;;;;17.98;12.57;;;3.60;94.80;;;;;;5077005;28;20032;-53
2020/12/30 01:27:12;;;;;;;14.13;12.27;;;3.60;94.80;;;;;;5079921;28;20436;-53
2020/12/30 01:29:38;;;;;;;14.20;11.52;;;3.60;94.80;;;;;;5076450;28;20082;-54
2020/12/30 01:32:03;;;;;;;16.95;13.23;;;3.60;94.80;;;;;;5079523;28;20036;-53
2020/12/30 01:34:29;;;;;;;16.17;12.68;;;3.60;94.80;;;;;;5077922;28;20533;-54
2020/12/30 01:36:55;;;;;;;16.40;12.75;;;3.60;94.80;;;;;;5075294;28;20114;-53
2020/12/30 01:39:21;;;;;;;17.15;12.90;;;3.60;94.80;;;;;;5079516;28;20070;-52
2020/12/30 01:41:48;;;;;;;17.00;13.27;;;3.60;94.80;;;;;;5084890;28;20461;-54
2020/12/30 01:44:14;;;;;;;17.73;12.98;;;3.60;94.90;;;;;;5078182;28;20067;-53
2020/12/30 01:46:45;;;;;;;16.73;13.60;;;3.60;94.90;;;;;;5079171;28;20040;-53
2020/12/30 01:49:17;;;;;;;16.25;13.43;;;3.60;94.90;;;;;;5080977;28;20036;-53
2020/12/30 01:51:44;;;;;;;14.48;12.57;;;3.60;94.90;;;;;;5082813;28;20117;-54
2020/12/30 01:54:14;;;;;;;16.33;12.45;;;3.60;94.80;;;;;;5082224;28;20127;-54
2020/12/30 01:56:41;;;;;;;16.40;13.75;;;3.60;94.80;;;;;;5082019;28;20036;-52
2020/12/30 01:59:09;;;;;;;16.73;13.13;;;3.60;94.80;;;;;;5077758;28;20059;-52
2020/12/30 02:01:41;;;;;;;14.90;11.48;;;3.50;94.70;;;;;;5079278;28;20044;-53
2020/12/30 02:04:10;;;;;;;18.92;12.93;;;3.60;94.70;;;;;;5079353;28;20037;-53
2020/12/30 02:06:36;;;;;;;14.88;11.93;;;3.50;94.70;;;;;;5079246;28;20044;-51
2020/12/30 02:09:04;;;;;;;18.83;12.63;;;3.50;94.70;;;;;;5081388;28;20044;-54
2020/12/30 02:11:30;;;;;;;16.42;12.63;;;3.50;94.70;;;;;;5079156;28;20077;-53
2020/12/30 02:14:13;;;;;;;16.48;12.18;;;3.40;94.70;;;;;;5079861;28;20585;-53
2020/12/30 02:16:50;;;;;;;17.15;11.73;;;3.40;94.70;;;;;;5076831;28;20493;-54
2020/12/30 02:19:16;;;;;;;15.95;12.32;;;3.40;94.70;;;;;;5082070;28;20036;-53
2020/12/30 02:21:42;;;;;;;18.80;11.68;;;3.40;94.70;;;;;;5079740;28;20032;-53
2020/12/30 02:24:11;;;;;;;14.30;11.35;;;3.30;94.70;;;;;;5079362;28;20067;-52
2020/12/30 02:26:37;;;;;;;16.48;12.23;;;3.30;94.70;;;;;;5077156;28;20119;-51
2020/12/30 02:29:03;;;;;;;17.40;12.68;;;3.30;94.60;;;;;;5078934;28;20162;-54
2020/12/30 02:31:29;;;;;;;17.85;12.45;;;3.20;94.60;;;;;;5082215;28;20044;-52
2020/12/30 02:33:54;;;;;;;17.58;12.77;;;3.20;94.60;;;;;;5079271;28;20050;-52
2020/12/30 02:36:20;;;;;;;16.77;12.57;;;3.10;94.60;;;;;;5077916;28;20033;-53
2020/12/30 02:38:51;;;;;;;17.65;11.95;;;3.10;94.70;;;;;;5078613;28;20062;-53
2020/12/30 02:41:18;;;;;;;18.70;13.25;;;3.10;94.70;;;;;;5080504;28;20028;-52
2020/12/30 02:43:45;;;;;;;16.30;12.63;;;3.10;94.70;;;;;;5078266;28;20048;-50
2020/12/30 02:46:11;;;;;;;23.92;13.00;;;3.10;94.80;;;;;;5080388;28;20038;-54
2020/12/30 02:48:37;;;;;;;20.88;12.88;;;3.00;94.80;;;;;;5079219;28;20089;-53
2020/12/30 02:51:03;;;;;;;16.98;11.77;;;3.00;94.90;;;;;;5079943;28;20035;-53
2020/12/30 02:53:28;;;;;;;18.13;12.23;;;3.10;94.90;;;;;;5078426;28;20033;-52
2020/12/30 02:55:54;;;;;;;18.17;12.00;;;3.10;94.80;;;;;;5079165;28;20036;-53
2020/12/30 02:58:19;;;;;;;19.70;11.57;;;3.00;94.80;;;;;;5076315;28;20037;-52
2020/12/30 03:00:45;;;;;;;21.35;12.68;;;3.00;94.80;;;;;;5078953;28;20402;-51
2020/12/30 03:03:11;;;;;;;18.27;12.48;;;3.00;94.80;;;;;;5079614;28;20397;-52
2020/12/30 03:05:37;;;;;;;19.13;12.00;;;3.00;94.90;;;;;;5078209;28;20047;-51
2020/12/30 03:08:02;;;;;;;19.45;11.85;;;3.00;94.80;;;;;;5081166;28;20036;-53
2020/12/30 03:10:28;;;;;;;16.00;11.65;;;3.00;94.90;;;;;;5078306;28;20052;-52
2020/12/30 03:12:54;;;;;;;17.23;12.50;;;2.90;94.90;;;;;;5080523;28;20556;-52
2020/12/30 03:15:19;;;;;;;18.75;12.82;;;3.00;95.00;;;;;;5078477;28;20044;-53
2020/12/30 03:17:45;;;;;;;18.58;12.88;;;3.00;95.00;;;;;;5078638;28;20570;-53
2020/12/30 03:20:11;;;;;;;21.48;13.15;;;3.00;95.00;;;;;;5079908;28;20039;-54
2020/12/30 03:22:36;;;;;;;20.75;11.95;;;3.00;95.10;;;;;;5078519;28;20479;-53
2020/12/30 03:25:02;;;;;;;18.00;12.30;;;3.00;95.10;;;;;;5078321;28;20036;-53
2020/12/30 03:27:28;;;;;;;18.17;12.43;;;3.00;95.10;;;;;;5074975;28;20037;-53
2020/12/30 03:29:53;;;;;;;18.83;11.90;;;3.10;95.10;;;;;;5083277;28;20044;-53
2020/12/30 03:32:19;;;;;;;21.10;12.70;;;3.10;95.10;;;;;;5075686;28;20394;-52
2020/12/30 03:34:45;;;;;;;17.83;11.48;;;3.10;95.10;;;;;;5079823;28;20035;-54
2020/12/30 03:37:11;;;;;;;18.73;12.02;;;3.10;95.10;;;;;;5080087;28;20040;-53
2020/12/30 03:39:36;;;;;;;20.85;12.52;;;3.10;95.10;;;;;;5076781;28;20040;-52
2020/12/30 03:42:02;;;;;;;18.80;11.88;;;3.10;95.00;;;;;;5078480;28;20039;-52
2020/12/30 03:44:28;;;;;;;16.10;10.88;;;3.20;95.10;;;;;;5078485;28;20380;-52
2020/12/30 03:46:54;;;;;;;18.42;12.13;;;3.20;95.00;;;;;;5080581;28;20094;-54
2020/12/30 03:49:19;;;;;;;17.40;12.15;;;3.20;95.00;;;;;;5077199;28;20090;-53
2020/12/30 03:51:45;;;;;;;21.17;12.82;;;3.20;95.00;;;;;;5075981;28;20542;-54
2020/12/30 03:54:10;;;;;;;17.45;12.25;;;3.20;94.90;;;;;;5076758;28;20043;-53
2020/12/30 03:56:36;;;;;;;19.35;12.77;;;3.20;94.90;;;;;;5077295;28;20119;-54
2020/12/30 03:59:02;;;;;;;19.77;13.20;;;3.20;94.90;;;;;;5080115;28;20112;-54
2020/12/30 04:01:27;;;;;;;19.70;13.27;;;3.20;94.90;;;;;;5076135;28;20072;-54
2020/12/30 04:03:53;;;;;;;22.15;13.63;;;3.20;95.00;;;;;;5084058;28;20037;-52
2020/12/30 04:06:19;;;;;;;19.63;12.82;;;3.20;95.00;;;;;;5077685;28;20036;-52
2020/12/30 04:08:45;;;;;;;23.98;14.40;;;3.20;94.90;;;;;;5077067;28;20506;-53
2020/12/30 04:11:11;;;;;;;19.95;14.18;;;3.20;94.90;;;;;;5080698;28;20043;-53
2020/12/30 04:13:36;;;;;;;19.50;13.07;;;3.20;95.00;;;;;;5081258;28;20124;-53
2020/12/30 04:16:02;;;;;;;20.58;13.18;;;3.20;94.90;;;;;;5083404;28;20520;-53
2020/12/30 04:18:28;;;;;;;18.67;12.98;;;3.20;94.90;;;;;;5082145;28;20040;-54
2020/12/30 04:20:53;;;;;;;21.20;13.65;;;3.20;94.90;;;;;;5085049;28;20037;-54
2020/12/30 04:23:19;;;;;;;17.88;12.38;;;3.20;94.90;;;;;;5078511;28;20423;-54
2020/12/30 04:25:48;;;;;;;19.63;13.13;;;3.20;94.90;;;;;;5080425;28;20037;-53
2020/12/30 04:28:15;;;;;;;16.95;12.02;;;3.20;94.90;;;;;;5085469;28;20078;-53
2020/12/30 04:30:41;;;;;;;18.45;12.77;;;3.20;94.80;;;;;;5082169;28;20090;-53
2020/12/30 04:33:09;;;;;;;16.40;11.65;;;3.20;94.80;;;;;;5082507;28;20067;-52
2020/12/30 04:35:34;;;;;;;16.25;11.73;;;3.20;94.80;;;;;;5086962;28;20047;-54
2020/12/30 04:38:00;;;;;;;16.02;12.20;;;3.20;94.80;;;;;;5079124;28;20403;-53
2020/12/30 04:40:26;;;;;;;15.63;11.05;;;3.20;94.80;;;;;;5081945;28;20054;-53
2020/12/30 04:42:54;;;;;;;20.10;13.05;;;3.20;94.80;;;;;;5082732;28;20409;-54
2020/12/30 04:45:21;;;;;;;16.58;12.63;;;3.20;94.80;;;;;;5082397;28;20036;-51
2020/12/30 04:47:48;;;;;;;22.40;12.88;;;3.20;94.90;;;;;;5083212;28;20036;-52
2020/12/30 04:50:14;;;;;;;17.05;12.32;;;3.20;95.00;;;;;;5077006;28;20626;-53
2020/12/30 04:52:41;;;;;;;18.88;12.60;;;3.20;95.00;;;;;;5081332;28;20050;-52
2020/12/30 04:55:07;;;;;;;15.90;11.50;;;3.20;95.00;;;;;;5082440;28;20482;-51
2020/12/30 04:58:08;;;;;;;17.38;12.50;;;3.20;94.90;;;;;;5079188;28;20045;-53
2020/12/30 05:00:38;;;;;;;16.13;12.18;;;3.10;94.80;;;;;;5077787;28;20052;-53
2020/12/30 05:03:09;;;;;;;17.35;11.98;;;3.10;94.70;;;;;;5084083;28;20040;-53
2020/12/30 05:05:39;;;;;;;16.80;11.85;;;3.10;94.80;;;;;;5082870;28;20044;-53
2020/12/30 05:08:12;;;;;;;19.50;13.30;;;3.10;94.70;;;;;;5082908;28;20359;-52
2020/12/30 05:10:40;;;;;;;18.20;12.95;;;3.00;94.80;;;;;;5076489;28;20192;-52
2020/12/30 05:13:06;;;;;;;19.83;13.40;;;3.00;94.80;;;;;;5083032;28;20036;-50
2020/12/30 05:15:32;;;;;;;19.67;13.50;;;3.00;94.80;;;;;;5076568;28;20036;-51
2020/12/30 05:18:03;;;;;;;21.70;14.45;;;3.00;94.80;;;;;;5079982;28;20032;-51
2020/12/30 05:20:35;;;;;;;21.60;13.90;;;3.00;94.90;;;;;;5082908;28;20390;-52
2020/12/30 05:23:11;;;;;;;20.25;13.77;;;3.00;94.90;;;;;;5084456;28;20041;-52
2020/12/30 05:25:38;;;;;;;20.30;12.88;;;3.00;94.90;;;;;;5080376;28;20533;-53
2020/12/30 05:28:05;;;;;;;17.33;12.70;;;3.00;94.90;;;;;;5082310;28;20040;-53
2020/12/30 05:30:31;;;;;;;21.55;13.88;;;3.00;94.90;;;;;;5083062;28;20032;-51
2020/12/30 05:32:58;;;;;;;19.83;13.90;;;3.00;95.00;;;;;;5077826;28;20040;-53
2020/12/30 05:35:25;;;;;;;17.70;12.98;;;3.00;95.00;;;;;;5077200;28;20040;-53
2020/12/30 05:37:51;;;;;;;20.77;13.43;;;2.90;95.00;;;;;;5079293;28;20560;-53
2020/12/30 05:40:20;;;;;;;20.73;13.60;;;3.00;95.10;;;;;;5082432;28;20127;-53
2020/12/30 05:42:47;;;;;;;18.45;12.32;;;2.90;95.10;;;;;;5085284;28;20044;-53
2020/12/30 05:45:20;;;;;;;17.50;12.63;;;2.90;95.10;;;;;;5080005;28;20037;-53
2020/12/30 05:47:48;;;;;;;19.48;12.35;;;3.00;95.10;;;;;;5080174;28;20093;-53
2020/12/30 05:50:24;;;;;;;17.67;12.50;;;2.90;95.10;;;;;;5083136;28;20039;-53
2020/12/30 05:52:51;;;;;;;20.33;13.07;;;2.90;95.10;;;;;;5076989;28;20037;-52
2020/12/30 05:55:26;;;;;;;21.02;13.35;;;2.90;95.10;;;;;;5081081;28;20070;-52
2020/12/30 05:57:53;;;;;;;18.03;12.90;;;3.00;95.10;;;;;;5078441;28;20036;-50
2020/12/30 06:00:19;;;;;;;17.13;12.38;;;3.00;95.20;;;;;;5079061;28;20115;-51
2020/12/30 06:02:47;;;;;;;19.30;12.75;;;2.90;95.20;;;;;;5079036;28;20093;-48
2020/12/30 06:05:15;;;;;;;19.73;13.00;;;3.00;95.20;;;;;;5080208;28;20043;-53
2020/12/30 06:07:43;;;;;;;20.90;12.35;;;3.00;95.20;;;;;;5078388;28;20115;-52
2020/12/30 06:10:11;;;;;;;17.30;12.40;;;3.00;95.20;;;;;;5082528;28;20060;-53
2020/12/30 06:12:51;;;;;;;19.02;12.73;;;3.00;95.20;;;;;;5078800;28;20359;-53
2020/12/30 06:15:23;;;;;;;23.35;13.00;;;3.00;95.10;;;;;;5079590;28;20051;-48
2020/12/30 06:17:56;;;;;;;21.30;12.63;;;3.00;95.20;;;;;;5080664;28;20351;-53
2020/12/30 06:20:33;;;;;;;20.88;12.93;;;3.00;95.10;;;;;;5084307;28;20036;-53
2020/12/30 06:23:05;;;;;;;23.30;13.05;;;3.00;95.10;;;;;;5084953;28;20040;-51
2020/12/30 06:25:33;;;;;;;22.25;13.88;;;3.00;95.10;;;;;;5079275;28;20494;-53
2020/12/30 06:28:10;;;;;;;21.17;12.60;;;3.00;95.10;;;;;;5083047;28;20513;-53
2020/12/30 06:30:37;;;;;;;19.13;13.05;;;3.00;95.10;;;;;;5081897;28;20047;-52
2020/12/30 06:33:04;;;;;;;20.42;13.48;;;3.00;95.10;;;;;;5082516;28;20494;-51
2020/12/30 06:35:31;;;;;;;23.80;13.75;;;3.00;95.10;;;;;;5081790;28;20024;-53
2020/12/30 06:37:58;;;;;;;19.73;12.70;;;3.00;95.10;;;;;;5082634;28;20043;-51
2020/12/30 06:40:26;;;;;;;25.58;13.90;;;3.00;95.10;;;;;;5084072;28;20039;-53
2020/12/30 06:42:55;;;;;;;22.45;14.10;;;3.00;95.10;;;;;;5082273;28;20455;-52
2020/12/30 06:45:49;;;;;;;22.45;14.20;;;3.00;95.10;;;;;;5079776;28;20066;-53
2020/12/30 06:48:16;;;;;;;20.98;13.60;;;2.90;95.10;;;;;;5080626;28;20536;-52
2020/12/30 06:50:42;;;;;;;19.35;13.35;;;3.00;95.10;;;;;;5081430;28;20036;-52
2020/12/30 06:53:28;;;;;;;19.20;13.10;;;2.90;95.00;;;;;;5081767;28;20193;-53
2020/12/30 06:55:55;;;;;;;20.52;13.35;;;2.90;95.00;;;;;;5080493;28;20044;-53
2020/12/30 06:58:43;;;;;;;21.45;13.73;;;2.90;95.00;;;;;;5076818;28;20052;-51
2020/12/30 07:01:19;;;;;;;22.02;13.00;;;2.80;94.90;;;;;;5078193;28;20116;-52
2020/12/30 07:03:46;;;;;;;22.52;13.40;;;2.90;94.90;;;;;;5080344;28;20047;-53
2020/12/30 07:06:42;;;;;;;18.90;13.60;;;2.80;94.90;;;;;;5078997;28;20060;-54
2020/12/30 07:09:07;;;;;;;20.17;12.55;;;2.80;95.00;;;;;;5058751;28;20048;-53
2020/12/30 07:11:42;;;;;;;21.27;13.63;;;2.80;95.10;;;;;;5080188;28;20043;-54
2020/12/30 07:14:20;;;;;;;23.85;13.27;;;2.80;95.10;;;;;;5082639;28;20048;-53
2020/12/30 07:16:48;;;;;;;21.35;12.88;;;2.80;95.10;;;;;;5083528;28;20036;-54
2020/12/30 07:19:19;;;;;;;21.52;13.35;;;2.80;95.10;;;;;;5083806;28;20075;-53
2020/12/30 07:22:06;;;;;;;22.60;13.45;;;2.80;95.10;;;;;;5084289;28;20039;-53
2020/12/30 07:24:36;;;;;;;22.55;14.30;;;2.80;95.10;;;;;;5084017;28;20085;-53
2020/12/30 07:27:13;;;;;;;25.90;14.38;;;2.80;95.10;;;;;;5078216;28;20064;-54
2020/12/30 07:29:40;;;;;;;22.05;13.55;;;2.80;95.10;;;;;;5081172;28;20900;-52
2020/12/30 07:32:07;;;;;;;23.98;13.48;;;2.80;95.10;;;;;;5082450;28;20040;-53
2020/12/30 07:34:35;;;;;;;21.25;13.27;;;2.80;95.10;;;;;;5084153;28;20037;-52
2020/12/30 07:37:03;;;;;;;23.77;14.13;;;2.70;95.10;;;;;;5082173;28;20090;-53
2020/12/30 07:39:40;;;;;;;19.17;13.70;;;2.70;95.10;;;;;;5083916;28;20040;-53
2020/12/30 07:42:11;;;;;;;23.00;13.88;;;2.80;95.10;;;;;;5080537;28;20032;-53
2020/12/30 07:44:52;;;;;;;24.42;14.93;;;2.80;95.10;;;;;;5083755;28;20044;-53
2020/12/30 07:47:19;;;;;;;25.90;15.60;;;2.80;95.10;;;;;;5083996;28;20036;-53
2020/12/30 07:49:46;;;;;;;23.20;14.30;;;2.80;95.10;;;;;;5084263;28;20058;-53
2020/12/30 07:52:12;;;;;;;26.00;14.68;;;2.70;95.10;;;;;;5086609;28;20044;-53
2020/12/30 07:54:38;;;;;;;25.88;15.35;;;2.80;95.10;;;;;;5083393;28;20040;-54
2020/12/30 07:57:12;;;;;;;25.13;15.27;;;2.80;95.10;;;;;;5086141;28;20036;-54
2020/12/30 07:59:39;;;;;;;26.63;16.30;;;2.80;95.10;;;;;;5083967;28;20041;-54
2020/12/30 08:02:12;;;;;;;23.70;14.85;;;2.80;95.10;;;;;;5087437;28;20111;-52
2020/12/30 08:04:39;;;;;;;23.60;14.90;;;2.70;95.10;;;;;;5083100;28;20045;-53
2020/12/30 08:07:08;;;;;;;28.00;15.90;;;2.80;95.10;;;;;;5087093;28;20123;-53
2020/12/30 08:09:42;;;;;;;27.67;15.02;;;2.80;95.10;;;;;;5083156;28;20127;-53
2020/12/30 08:12:13;;;;;;;23.23;15.07;;;2.80;95.20;;;;;;5087448;28;20405;-53
2020/12/30 08:14:40;;;;;;;25.85;15.52;;;2.80;95.20;;;;;;5086818;28;20051;-53
2020/12/30 08:17:11;;;;;;;22.00;14.65;;;2.80;95.10;;;;;;5085139;28;20068;-54
2020/12/30 08:19:41;;;;;;;23.90;15.25;;;2.80;95.10;;;;;;5084930;28;20055;-54
2020/12/30 08:22:12;;;;;;;21.02;14.63;;;2.80;95.10;;;;;;5086636;28;20072;-54
2020/12/30 08:24:40;;;;;;;24.75;15.20;;;2.80;95.10;;;;;;5086405;28;20048;-53
2020/12/30 08:27:07;;;;;;;24.33;15.52;;;2.80;95.10;;;;;;5088617;28;20120;-53
2020/12/30 08:29:38;;;;;;;21.88;14.40;;;2.80;95.10;;;;;;5081954;28;20116;-54
2020/12/30 08:32:25;;;;;;;21.77;14.35;;;2.80;95.10;;;;;;5084270;28;20115;-54
2020/12/30 08:34:55;;;;;;;21.60;14.50;;;2.80;95.10;;;;;;5079870;28;20034;-53
2020/12/30 08:37:32;;;;;;;20.17;14.35;;;2.90;95.20;;;;;;5078559;28;20123;-53
2020/12/30 08:40:04;;;;;;;22.17;14.68;;;2.90;95.50;;;;;;5082601;28;20060;-54
2020/12/30 08:42:33;;;;;;;21.33;14.00;;;3.00;95.20;;;;;;5080997;28;20040;-54
2020/12/30 08:45:06;;;;;;;22.02;14.57;;;3.00;95.20;;;;;;5078519;28;20368;-52
2020/12/30 08:47:38;;;;;;;19.05;13.25;;;3.10;95.20;;;;;;5081704;28;20133;-54
2020/12/30 08:50:08;;;;;;;21.67;12.43;;;3.10;95.10;;;;;;5078778;28;20050;-54
2020/12/30 08:52:43;;;;;;;16.45;12.13;;;3.20;95.10;;;;;;5083373;28;20036;-54
2020/12/30 08:55:10;;;;;;;19.80;12.35;;;3.20;95.00;;;;;;5084466;28;20055;-53
2020/12/30 08:57:41;;;;;;;15.43;11.98;;;3.30;95.00;;;;;;5082379;28;20036;-53
2020/12/30 09:00:22;;;;;;;17.17;12.90;;;3.30;94.90;;;;;;5084644;28;20044;-54
2020/12/30 09:02:53;;;;;;;17.33;12.00;;;3.30;94.80;;;;;;5084751;28;20536;-53
2020/12/30 09:05:32;;;;;;;18.75;12.88;;;3.30;94.80;;;;;;5080969;28;20032;-53
2020/12/30 09:08:17;;;;;;;15.35;11.57;;;3.30;94.70;;;;;;5088699;28;20043;-53
2020/12/30 09:10:47;;;;;;;14.82;11.65;;;3.40;94.70;;;;;;5082352;28;20063;-54
2020/12/30 09:13:17;;;;;;;16.33;12.00;;;3.30;94.70;;;;;;5083320;28;20066;-53
2020/12/30 09:15:44;;;;;;;14.77;12.02;;;3.40;94.70;;;;;;5078909;28;20051;-52
2020/12/30 09:18:12;;;;;;;15.10;11.68;;;3.50;94.60;;;;;;5081404;28;20054;-53
2020/12/30 09:20:37;;;;;;;16.67;11.98;;;3.50;94.60;;;;;;5079932;28;20044;-54
2020/12/30 09:23:04;;;;;;;14.73;12.02;;;3.50;94.60;;;;;;5079221;28;20037;-54
2020/12/30 09:25:36;;;;;;;13.45;11.43;;;3.60;94.70;;;;;;5087576;28;20064;-54
2020/12/30 09:28:14;;;;;;;13.70;11.35;;;3.70;94.70;;;;;;5083723;28;20939;-54
2020/12/30 09:30:39;;;;;;;13.10;10.75;;;3.70;94.60;;;;;;5085128;28;20035;-54
2020/12/30 09:33:16;;;;;;;15.00;11.68;;;3.70;94.50;;;;;;5080906;28;20470;-53
2020/12/30 09:35:43;;;;;;;13.52;10.85;;;3.80;94.50;;;;;;5076639;28;20032;-53
2020/12/30 09:38:09;;;;;;;13.55;11.23;;;3.80;94.40;;;;;;5082182;28;20036;-53
2020/12/30 09:40:42;;;;;;;15.57;11.50;;;3.80;94.40;;;;;;5085417;28;20036;-54
2020/12/30 09:43:10;;;;;;;15.90;11.00;;;3.80;94.70;;;;;;5079594;28;20047;-52
2020/12/30 09:45:36;;;;;;;12.15;10.73;;;3.80;94.50;;;;;;5076803;28;20139;-53
2020/12/30 09:48:10;;;;;;;16.55;11.65;;;3.80;94.50;;;;;;5088169;28;20040;-53
2020/12/30 09:50:37;;;;;;;12.95;10.88;;;3.90;94.50;;;;;;5078348;28;20109;-53
2020/12/30 09:53:03;;;;;;;15.63;12.18;;;3.90;94.50;;;;;;5086996;28;20044;-52
2020/12/30 09:55:28;;;;;;;16.20;11.15;;;3.90;94.50;;;;;;5086850;28;20045;-53
2020/12/30 09:57:54;;;;;;;11.38;10.15;;;4.00;94.70;;;;;;5082329;28;20379;-54
2020/12/30 10:00:19;;;;;;;15.32;11.45;;;4.00;94.60;;;;;;5078322;28;20482;-53
2020/12/30 10:02:45;;;;;;;12.88;11.18;;;4.00;94.60;;;;;;5080484;28;20036;-54
2020/12/30 10:05:13;;;;;;;13.45;10.65;;;4.10;94.60;;;;;;5082355;28;20044;-53
2020/12/30 10:07:38;;;;;;;12.68;10.48;;;4.10;94.70;;;;;;5082479;28;20498;-54
2020/12/30 10:10:04;;;;;;;12.77;10.18;;;4.20;94.60;;;;;;5083389;28;20042;-53
2020/12/30 10:12:30;;;;;;;12.20;10.82;;;4.20;94.40;;;;;;5079753;28;20126;-54
2020/12/30 10:14:55;;;;;;;13.10;11.02;;;4.20;94.50;;;;;;5078873;28;20107;-53
2020/12/30 10:17:21;;;;;;;14.55;10.85;;;4.20;94.60;;;;;;5084568;28;20068;-52
2020/12/30 10:19:47;;;;;;;14.15;10.75;;;4.30;94.90;;;;;;5080471;28;20098;-53
2020/12/30 10:22:13;;;;;;;18.52;10.85;;;4.20;94.60;;;;;;5082015;28;20040;-53
2020/12/30 10:24:48;;;;;;;14.65;10.60;;;4.20;94.70;;;;;;5081109;28;20064;-54
2020/12/30 10:27:16;;;;;;;12.13;10.13;;;4.20;94.80;;;;;;5078991;28;20040;-52
2020/12/30 10:29:42;;;;;;;14.90;9.63;;;4.30;94.80;;;;;;5081191;28;20040;-53
2020/12/30 10:32:08;;;;;;;10.30;9.20;;;4.30;94.70;;;;;;5081098;28;20056;-54
2020/12/30 10:34:35;;;;;;;12.82;9.63;;;4.30;94.60;;;;;;5082219;28;20056;-53
2020/12/30 10:37:02;;;;;;;12.32;10.00;;;4.30;94.60;;;;;;5082422;28;20448;-53
2020/12/30 10:39:28;;;;;;;11.80;9.65;;;4.30;94.60;;;;;;5083695;28;20974;-53
2020/12/30 10:41:57;;;;;;;10.95;9.05;;;4.40;94.70;;;;;;5081529;28;20159;-54
2020/12/30 10:44:23;;;;;;;9.65;8.65;;;4.40;94.60;;;;;;5079381;28;20040;-53
2020/12/30 10:46:50;;;;;;;11.30;8.50;;;4.40;94.60;;;;;;5084112;28;20042;-54
2020/12/30 10:49:15;;;;;;;14.25;9.80;;;4.50;94.60;;;;;;5080009;28;20028;-53
2020/12/30 10:51:46;;;;;;;11.45;9.15;;;4.50;94.60;;;;;;5079302;28;20556;-53
2020/12/30 10:54:12;;;;;;;9.15;7.43;;;4.50;94.60;;;;;;5084267;28;20127;-54
2020/12/30 10:56:38;;;;;;;8.13;7.32;;;4.60;94.50;;;;;;5077259;28;20056;-52
2020/12/30 10:59:04;;;;;;;9.60;7.38;;;4.50;94.50;;;;;;5080076;28;20032;-53
2020/12/30 11:01:29;;;;;;;8.77;7.35;;;4.60;94.50;;;;;;5078520;28;20552;-54
2020/12/30 11:03:55;;;;;;;7.78;7.05;;;4.70;94.50;;;;;;5078335;28;20036;-53
2020/12/30 11:06:21;;;;;;;9.70;7.20;;;4.70;94.40;;;;;;5081609;28;20114;-53
2020/12/30 11:08:48;;;;;;;8.85;7.20;;;4.70;94.00;;;;;;5076377;28;20534;-54
2020/12/30 11:11:14;;;;;;;7.80;7.03;;;4.70;94.00;;;;;;5079166;28;20040;-52
2020/12/30 11:13:41;;;;;;;8.52;7.00;;;4.70;93.90;;;;;;5079630;28;20399;-53
2020/12/30 11:16:09;;;;;;;8.73;6.68;;;4.70;94.00;;;;;;5079905;28;20115;-54
2020/12/30 11:18:34;;;;;;;8.23;6.65;;;4.70;94.00;;;;;;5081346;28;20038;-53
2020/12/30 11:21:00;;;;;;;6.15;5.55;;;4.70;94.00;;;;;;5083853;28;20033;-54
2020/12/30 11:23:26;;;;;;;5.55;4.60;;;4.80;94.20;;;;;;5086570;28;20131;-55
2020/12/30 11:25:53;;;;;;;5.35;4.85;;;5.10;94.30;;;;;;5087539;28;20044;-54
2020/12/30 11:28:19;;;;;;;7.13;4.43;;;5.30;94.20;;;;;;5080632;28;20043;-54
2020/12/30 11:30:45;;;;;;;3.83;3.53;;;5.60;94.10;;;;;;5082858;28;20078;-54
2020/12/30 11:33:11;;;;;;;3.80;3.50;;;5.90;93.20;;;;;;5084739;28;20099;-55
2020/12/30 11:35:36;;;;;;;3.28;3.00;;;6.10;93.10;;;;;;5084599;28;20095;-55
2020/12/30 11:38:02;;;;;;;4.97;3.70;;;6.40;92.10;;;;;;5079836;28;20474;-55
2020/12/30 11:40:28;;;;;;;7.63;4.85;;;6.50;91.80;;;;;;5078375;28;20040;-55
2020/12/30 11:42:54;;;;;;;5.32;4.63;;;6.60;91.40;;;;;;5081822;28;20051;-55
2020/12/30 11:45:20;;;;;;;6.47;5.32;;;6.60;91.20;;;;;;5086401;28;20039;-55
2020/12/30 11:47:46;;;;;;;7.20;5.38;;;6.60;90.80;;;;;;5080532;28;20044;-55
2020/12/30 11:50:12;;;;;;;7.05;6.25;;;6.60;90.70;;;;;;5083809;28;20044;-55
2020/12/30 11:52:38;;;;;;;8.00;6.57;;;6.50;90.80;;;;;;5083178;28;20039;-55
2020/12/30 11:55:04;;;;;;;6.95;6.25;;;6.50;90.90;;;;;;5082130;28;20116;-55
2020/12/30 11:57:30;;;;;;;7.07;6.47;;;6.50;91.10;;;;;;5082679;28;20494;-55
2020/12/30 11:59:56;;;;;;;7.47;6.78;;;6.50;91.20;;;;;;5080382;28;20072;-55
2020/12/30 12:02:22;;;;;;;7.07;6.30;;;6.60;91.00;;;;;;5087215;28;20117;-55
2020/12/30 12:04:48;;;;;;;8.88;6.38;;;6.60;91.30;;;;;;5079794;28;20463;-55
2020/12/30 12:07:14;;;;;;;7.50;5.95;;;6.60;90.80;;;;;;5086402;28;20128;-55
2020/12/30 12:09:40;;;;;;;7.47;6.28;;;6.60;90.80;;;;;;5079227;28;20056;-55
2020/12/30 12:12:05;;;;;;;7.63;6.47;;;6.60;91.00;;;;;;5079173;28;20072;-55
2020/12/30 12:14:31;;;;;;;8.43;6.25;;;6.60;90.70;;;;;;5077967;28;20071;-55
2020/12/30 12:16:58;;;;;;;7.45;6.30;;;6.50;90.70;;;;;;5084137;28;22039;-55
2020/12/30 12:19:24;;;;;;;7.15;6.50;;;6.60;90.90;;;;;;5084428;28;20047;-54
2020/12/30 12:21:51;;;;;;;7.65;6.88;;;6.50;90.70;;;;;;5082442;28;20047;-54
2020/12/30 12:24:18;;;;;;;10.43;6.63;;;6.50;90.80;;;;;;5083563;28;20028;-55
2020/12/30 12:26:44;;;;;;;8.73;6.70;;;6.50;90.90;;;;;;5086856;28;20680;-55
2020/12/30 12:29:22;;;;;;;7.72;6.05;;;6.50;91.10;;;;;;5084871;28;20034;-55
2020/12/30 12:32:26;;;;;;;7.57;6.25;;;6.60;91.00;;;;;;5087306;28;20056;-54
2020/12/30 12:34:54;;;;;;;6.93;6.22;;;6.70;91.00;;;;;;5083619;28;20067;-55
2020/12/30 12:37:23;;;;;;;7.00;5.63;;;6.70;91.00;;;;;;5086168;28;20490;-55
2020/12/30 12:39:51;;;;;;;6.63;5.90;;;6.80;90.90;;;;;;5084152;28;20028;-55
2020/12/30 12:42:17;;;;;;;6.30;5.70;;;6.80;90.90;;;;;;5084189;28;20127;-54
2020/12/30 12:44:44;;;;;;;6.45;5.10;;;6.80;90.80;;;;;;5080032;28;20083;-55
2020/12/30 12:47:09;;;;;;;6.03;5.43;;;6.90;90.80;;;;;;5086593;28;20054;-55